sensor_id;sensor_type;location;lat;lon;timestamp;P1;durP1;ratioP1;P2;durP2;ratioP2
21814;SDS011;11069;48.988;8.450;2023-06-24T00:01:49;4.63;;;3.85;;
21814;SDS011;11069;48.988;8.450;2023-06-24T00:04:15;4.15;;;3.70;;
21814;SDS011;11069;48.988;8.450;2023-06-24T00:06:43;5.38;;;3.72;;
21814;SDS011;11069;48.988;8.450;2023-06-24T00:09:09;5.53;;;4.03;;
21814;SDS011;11069;48.988;8.450;2023-06-24T00:11:35;3.90;;;3.35;;
21814;SDS011;11069;48.988;8.450;2023-06-24T00:14:01;4.28;;;3.83;;
21814;SDS011;11069;48.988;8.450;2023-06-24T00:16:27;4.68;;;4.13;;
21814;SDS011;11069;48.988;8.450;2023-06-24T00:18:56;4.30;;;3.50;;
21814;SDS011;11069;48.988;8.450;2023-06-24T00:21:23;4.82;;;3.95;;
21814;SDS011;11069;48.988;8.450;2023-06-24T00:23:54;4.68;;;3.40;;
21814;SDS011;11069;48.988;8.450;2023-06-24T00:26:20;4.88;;;3.58;;
21814;SDS011;11069;48.988;8.450;2023-06-24T00:28:46;4.78;;;3.53;;
21814;SDS011;11069;48.988;8.450;2023-06-24T00:31:12;4.57;;;4.07;;
21814;SDS011;11069;48.988;8.450;2023-06-24T00:33:38;5.65;;;4.10;;
21814;SDS011;11069;48.988;8.450;2023-06-24T00:36:04;4.47;;;3.33;;
21814;SDS011;11069;48.988;8.450;2023-06-24T00:38:31;6.18;;;4.15;;
21814;SDS011;11069;48.988;8.450;2023-06-24T00:41:00;5.00;;;4.40;;
21814;SDS011;11069;48.988;8.450;2023-06-24T00:43:27;6.32;;;4.00;;
21814;SDS011;11069;48.988;8.450;2023-06-24T00:45:54;4.78;;;3.88;;
21814;SDS011;11069;48.988;8.450;2023-06-24T00:48:20;4.00;;;3.60;;
21814;SDS011;11069;48.988;8.450;2023-06-24T00:50:47;4.70;;;3.83;;
21814;SDS011;11069;48.988;8.450;2023-06-24T00:53:14;4.93;;;3.92;;
21814;SDS011;11069;48.988;8.450;2023-06-24T00:55:40;4.45;;;3.63;;
21814;SDS011;11069;48.988;8.450;2023-06-24T00:58:06;3.80;;;3.38;;
21814;SDS011;11069;48.988;8.450;2023-06-24T01:00:33;4.00;;;3.60;;
21814;SDS011;11069;48.988;8.450;2023-06-24T01:02:59;4.18;;;3.30;;
21814;SDS011;11069;48.988;8.450;2023-06-24T01:05:25;4.05;;;3.42;;
21814;SDS011;11069;48.988;8.450;2023-06-24T01:07:52;5.28;;;3.55;;
21814;SDS011;11069;48.988;8.450;2023-06-24T01:10:21;4.47;;;3.70;;
21814;SDS011;11069;48.988;8.450;2023-06-24T01:12:48;4.53;;;3.80;;
21814;SDS011;11069;48.988;8.450;2023-06-24T01:15:14;4.97;;;4.00;;
21814;SDS011;11069;48.988;8.450;2023-06-24T01:30:42;5.32;;;4.20;;
21814;SDS011;11069;48.988;8.450;2023-06-24T01:33:18;4.55;;;4.13;;
21814;SDS011;11069;48.988;8.450;2023-06-24T01:35:46;4.95;;;4.00;;
21814;SDS011;11069;48.988;8.450;2023-06-24T01:38:26;5.65;;;4.20;;
21814;SDS011;11069;48.988;8.450;2023-06-24T01:40:52;5.88;;;4.93;;
21814;SDS011;11069;48.988;8.450;2023-06-24T01:43:20;5.05;;;4.13;;
21814;SDS011;11069;48.988;8.450;2023-06-24T01:45:49;6.00;;;5.07;;
21814;SDS011;11069;48.988;8.450;2023-06-24T01:48:24;4.68;;;4.10;;
21814;SDS011;11069;48.988;8.450;2023-06-24T01:50:58;5.68;;;4.03;;
21814;SDS011;11069;48.988;8.450;2023-06-24T01:53:26;5.43;;;4.57;;
21814;SDS011;11069;48.988;8.450;2023-06-24T01:55:53;6.22;;;4.63;;
21814;SDS011;11069;48.988;8.450;2023-06-24T01:58:19;5.10;;;4.60;;
21814;SDS011;11069;48.988;8.450;2023-06-24T02:00:47;5.68;;;4.68;;
21814;SDS011;11069;48.988;8.450;2023-06-24T02:03:14;5.70;;;4.85;;
21814;SDS011;11069;48.988;8.450;2023-06-24T02:05:40;6.85;;;4.40;;
21814;SDS011;11069;48.988;8.450;2023-06-24T02:08:07;5.30;;;4.45;;
21814;SDS011;11069;48.988;8.450;2023-06-24T02:10:34;6.05;;;4.78;;
21814;SDS011;11069;48.988;8.450;2023-06-24T02:13:02;5.68;;;4.90;;
21814;SDS011;11069;48.988;8.450;2023-06-24T02:15:28;6.25;;;4.85;;
21814;SDS011;11069;48.988;8.450;2023-06-24T02:17:54;4.57;;;4.18;;
21814;SDS011;11069;48.988;8.450;2023-06-24T02:20:21;5.60;;;4.50;;
21814;SDS011;11069;48.988;8.450;2023-06-24T02:22:51;5.63;;;4.60;;
21814;SDS011;11069;48.988;8.450;2023-06-24T02:25:17;5.45;;;4.60;;
21814;SDS011;11069;48.988;8.450;2023-06-24T02:27:43;5.55;;;5.00;;
21814;SDS011;11069;48.988;8.450;2023-06-24T02:30:09;6.47;;;5.18;;
21814;SDS011;11069;48.988;8.450;2023-06-24T02:32:36;5.22;;;4.47;;
21814;SDS011;11069;48.988;8.450;2023-06-24T02:35:03;6.65;;;5.20;;
21814;SDS011;11069;48.988;8.450;2023-06-24T02:37:29;6.10;;;5.50;;
21814;SDS011;11069;48.988;8.450;2023-06-24T02:39:56;5.65;;;4.85;;
21814;SDS011;11069;48.988;8.450;2023-06-24T02:42:21;6.25;;;4.93;;
21814;SDS011;11069;48.988;8.450;2023-06-24T02:44:47;5.60;;;4.90;;
21814;SDS011;11069;48.988;8.450;2023-06-24T02:47:14;6.03;;;4.95;;
21814;SDS011;11069;48.988;8.450;2023-06-24T02:49:40;6.38;;;4.93;;
21814;SDS011;11069;48.988;8.450;2023-06-24T02:52:07;5.88;;;5.05;;
21814;SDS011;11069;48.988;8.450;2023-06-24T02:54:33;6.13;;;5.07;;
21814;SDS011;11069;48.988;8.450;2023-06-24T02:57:00;6.50;;;4.97;;
21814;SDS011;11069;48.988;8.450;2023-06-24T02:59:26;6.80;;;5.40;;
21814;SDS011;11069;48.988;8.450;2023-06-24T03:01:52;6.07;;;4.95;;
21814;SDS011;11069;48.988;8.450;2023-06-24T03:04:19;5.80;;;4.95;;
21814;SDS011;11069;48.988;8.450;2023-06-24T03:06:45;5.80;;;5.05;;
21814;SDS011;11069;48.988;8.450;2023-06-24T03:09:12;5.45;;;4.95;;
21814;SDS011;11069;48.988;8.450;2023-06-24T03:11:41;6.32;;;5.40;;
21814;SDS011;11069;48.988;8.450;2023-06-24T03:14:08;5.60;;;5.00;;
21814;SDS011;11069;48.988;8.450;2023-06-24T03:16:34;7.07;;;4.97;;
21814;SDS011;11069;48.988;8.450;2023-06-24T03:19:00;6.95;;;5.60;;
21814;SDS011;11069;48.988;8.450;2023-06-24T03:21:26;9.38;;;5.47;;
21814;SDS011;11069;48.988;8.450;2023-06-24T03:23:53;5.65;;;5.13;;
21814;SDS011;11069;48.988;8.450;2023-06-24T03:26:19;5.35;;;4.82;;
21814;SDS011;11069;48.988;8.450;2023-06-24T03:28:45;5.50;;;4.97;;
21814;SDS011;11069;48.988;8.450;2023-06-24T03:31:11;5.10;;;4.60;;
21814;SDS011;11069;48.988;8.450;2023-06-24T03:33:37;5.68;;;5.07;;
21814;SDS011;11069;48.988;8.450;2023-06-24T03:36:03;6.90;;;5.68;;
21814;SDS011;11069;48.988;8.450;2023-06-24T03:38:29;7.13;;;5.88;;
21814;SDS011;11069;48.988;8.450;2023-06-24T03:40:56;6.53;;;5.47;;
21814;SDS011;11069;48.988;8.450;2023-06-24T03:43:22;7.30;;;5.18;;
21814;SDS011;11069;48.988;8.450;2023-06-24T03:45:48;7.25;;;5.30;;
21814;SDS011;11069;48.988;8.450;2023-06-24T03:48:14;5.82;;;5.20;;
21814;SDS011;11069;48.988;8.450;2023-06-24T03:50:40;5.90;;;5.30;;
21814;SDS011;11069;48.988;8.450;2023-06-24T03:53:06;6.10;;;5.10;;
21814;SDS011;11069;48.988;8.450;2023-06-24T03:55:32;8.35;;;5.70;;
21814;SDS011;11069;48.988;8.450;2023-06-24T03:57:58;6.72;;;5.65;;
21814;SDS011;11069;48.988;8.450;2023-06-24T04:00:24;7.55;;;6.25;;
21814;SDS011;11069;48.988;8.450;2023-06-24T04:02:50;6.30;;;5.70;;
21814;SDS011;11069;48.988;8.450;2023-06-24T04:05:18;7.60;;;6.00;;
21814;SDS011;11069;48.988;8.450;2023-06-24T04:07:44;6.22;;;5.07;;
21814;SDS011;11069;48.988;8.450;2023-06-24T04:10:11;7.90;;;6.20;;
21814;SDS011;11069;48.988;8.450;2023-06-24T04:12:38;6.40;;;5.50;;
21814;SDS011;11069;48.988;8.450;2023-06-24T04:15:04;7.43;;;5.95;;
21814;SDS011;11069;48.988;8.450;2023-06-24T04:17:30;6.72;;;5.60;;
21814;SDS011;11069;48.988;8.450;2023-06-24T04:19:57;6.97;;;5.35;;
21814;SDS011;11069;48.988;8.450;2023-06-24T04:22:24;6.78;;;5.40;;
21814;SDS011;11069;48.988;8.450;2023-06-24T04:24:50;7.85;;;5.80;;
21814;SDS011;11069;48.988;8.450;2023-06-24T04:27:16;7.13;;;5.72;;
21814;SDS011;11069;48.988;8.450;2023-06-24T04:29:42;6.85;;;5.80;;
21814;SDS011;11069;48.988;8.450;2023-06-24T04:32:08;7.18;;;5.43;;
21814;SDS011;11069;48.988;8.450;2023-06-24T04:34:34;5.72;;;5.10;;
21814;SDS011;11069;48.988;8.450;2023-06-24T04:37:00;6.20;;;5.25;;
21814;SDS011;11069;48.988;8.450;2023-06-24T04:39:26;7.88;;;5.72;;
21814;SDS011;11069;48.988;8.450;2023-06-24T04:41:52;5.63;;;5.07;;
21814;SDS011;11069;48.988;8.450;2023-06-24T04:44:18;5.93;;;5.32;;
21814;SDS011;11069;48.988;8.450;2023-06-24T04:46:45;7.00;;;5.63;;
21814;SDS011;11069;48.988;8.450;2023-06-24T04:49:11;5.88;;;4.93;;
21814;SDS011;11069;48.988;8.450;2023-06-24T04:51:37;8.98;;;4.90;;
21814;SDS011;11069;48.988;8.450;2023-06-24T04:54:03;8.20;;;5.40;;
21814;SDS011;11069;48.988;8.450;2023-06-24T04:56:29;6.63;;;5.03;;
21814;SDS011;11069;48.988;8.450;2023-06-24T04:58:55;8.45;;;5.05;;
21814;SDS011;11069;48.988;8.450;2023-06-24T05:01:21;6.05;;;4.93;;
21814;SDS011;11069;48.988;8.450;2023-06-24T05:03:47;5.97;;;4.65;;
21814;SDS011;11069;48.988;8.450;2023-06-24T05:06:13;5.88;;;4.28;;
21814;SDS011;11069;48.988;8.450;2023-06-24T05:08:39;5.18;;;4.43;;
21814;SDS011;11069;48.988;8.450;2023-06-24T05:11:05;5.78;;;4.57;;
21814;SDS011;11069;48.988;8.450;2023-06-24T05:13:31;5.25;;;4.03;;
21814;SDS011;11069;48.988;8.450;2023-06-24T05:15:57;4.28;;;3.88;;
21814;SDS011;11069;48.988;8.450;2023-06-24T05:18:23;9.25;;;4.68;;
21814;SDS011;11069;48.988;8.450;2023-06-24T05:20:49;5.15;;;3.63;;
21814;SDS011;11069;48.988;8.450;2023-06-24T05:23:15;4.90;;;4.40;;
21814;SDS011;11069;48.988;8.450;2023-06-24T05:25:41;4.68;;;3.92;;
21814;SDS011;11069;48.988;8.450;2023-06-24T05:28:07;5.00;;;3.92;;
21814;SDS011;11069;48.988;8.450;2023-06-24T05:30:33;6.05;;;4.03;;
21814;SDS011;11069;48.988;8.450;2023-06-24T05:32:59;7.68;;;4.13;;
21814;SDS011;11069;48.988;8.450;2023-06-24T05:35:25;5.13;;;4.45;;
21814;SDS011;11069;48.988;8.450;2023-06-24T05:37:51;4.20;;;3.80;;
21814;SDS011;11069;48.988;8.450;2023-06-24T05:40:17;4.95;;;4.05;;
21814;SDS011;11069;48.988;8.450;2023-06-24T05:42:49;5.13;;;4.22;;
21814;SDS011;11069;48.988;8.450;2023-06-24T05:45:17;5.32;;;3.78;;
21814;SDS011;11069;48.988;8.450;2023-06-24T05:47:42;5.20;;;4.45;;
21814;SDS011;11069;48.988;8.450;2023-06-24T05:50:09;6.00;;;4.30;;
21814;SDS011;11069;48.988;8.450;2023-06-24T05:52:35;4.85;;;4.18;;
21814;SDS011;11069;48.988;8.450;2023-06-24T05:55:01;4.85;;;4.35;;
21814;SDS011;11069;48.988;8.450;2023-06-24T05:57:27;4.97;;;4.03;;
21814;SDS011;11069;48.988;8.450;2023-06-24T05:59:53;5.75;;;3.85;;
21814;SDS011;11069;48.988;8.450;2023-06-24T06:02:19;4.70;;;3.53;;
21814;SDS011;11069;48.988;8.450;2023-06-24T06:04:45;4.55;;;3.90;;
21814;SDS011;11069;48.988;8.450;2023-06-24T06:07:11;5.85;;;3.90;;
21814;SDS011;11069;48.988;8.450;2023-06-24T06:09:36;4.63;;;3.65;;
21814;SDS011;11069;48.988;8.450;2023-06-24T06:12:03;4.47;;;4.00;;
21814;SDS011;11069;48.988;8.450;2023-06-24T06:14:29;4.30;;;3.65;;
21814;SDS011;11069;48.988;8.450;2023-06-24T06:16:55;4.18;;;3.15;;
21814;SDS011;11069;48.988;8.450;2023-06-24T06:19:21;4.00;;;3.22;;
21814;SDS011;11069;48.988;8.450;2023-06-24T06:21:46;3.45;;;3.00;;
21814;SDS011;11069;48.988;8.450;2023-06-24T06:24:12;4.72;;;3.13;;
21814;SDS011;11069;48.988;8.450;2023-06-24T06:26:42;4.40;;;3.42;;
21814;SDS011;11069;48.988;8.450;2023-06-24T06:29:11;4.10;;;3.20;;
21814;SDS011;11069;48.988;8.450;2023-06-24T06:31:37;3.78;;;3.22;;
21814;SDS011;11069;48.988;8.450;2023-06-24T06:34:03;3.63;;;2.95;;
21814;SDS011;11069;48.988;8.450;2023-06-24T06:36:29;3.80;;;3.00;;
21814;SDS011;11069;48.988;8.450;2023-06-24T06:38:55;3.67;;;2.97;;
21814;SDS011;11069;48.988;8.450;2023-06-24T06:41:21;3.78;;;2.80;;
21814;SDS011;11069;48.988;8.450;2023-06-24T06:43:52;4.22;;;2.90;;
21814;SDS011;11069;48.988;8.450;2023-06-24T06:46:18;2.92;;;2.63;;
21814;SDS011;11069;48.988;8.450;2023-06-24T06:48:44;3.15;;;2.85;;
21814;SDS011;11069;48.988;8.450;2023-06-24T06:51:11;3.42;;;2.88;;
21814;SDS011;11069;48.988;8.450;2023-06-24T06:53:37;4.32;;;3.35;;
21814;SDS011;11069;48.988;8.450;2023-06-24T06:56:03;4.03;;;3.10;;
21814;SDS011;11069;48.988;8.450;2023-06-24T06:58:30;4.00;;;3.30;;
21814;SDS011;11069;48.988;8.450;2023-06-24T07:00:55;3.53;;;3.22;;
21814;SDS011;11069;48.988;8.450;2023-06-24T07:03:26;3.35;;;3.03;;
21814;SDS011;11069;48.988;8.450;2023-06-24T07:05:53;5.13;;;3.60;;
21814;SDS011;11069;48.988;8.450;2023-06-24T07:08:19;3.03;;;2.60;;
21814;SDS011;11069;48.988;8.450;2023-06-24T07:10:45;2.97;;;2.67;;
21814;SDS011;11069;48.988;8.450;2023-06-24T07:13:11;4.20;;;3.17;;
21814;SDS011;11069;48.988;8.450;2023-06-24T07:15:37;5.22;;;3.53;;
21814;SDS011;11069;48.988;8.450;2023-06-24T07:18:03;3.15;;;2.85;;
21814;SDS011;11069;48.988;8.450;2023-06-24T07:20:29;5.95;;;2.95;;
21814;SDS011;11069;48.988;8.450;2023-06-24T07:22:55;3.97;;;3.10;;
21814;SDS011;11069;48.988;8.450;2023-06-24T07:25:21;3.67;;;3.28;;
21814;SDS011;11069;48.988;8.450;2023-06-24T07:27:47;3.97;;;2.97;;
21814;SDS011;11069;48.988;8.450;2023-06-24T07:30:12;4.18;;;3.30;;
21814;SDS011;11069;48.988;8.450;2023-06-24T07:32:38;3.72;;;2.97;;
21814;SDS011;11069;48.988;8.450;2023-06-24T07:35:05;3.50;;;3.17;;
21814;SDS011;11069;48.988;8.450;2023-06-24T07:37:31;4.63;;;3.38;;
21814;SDS011;11069;48.988;8.450;2023-06-24T07:39:57;4.30;;;3.50;;
21814;SDS011;11069;48.988;8.450;2023-06-24T07:42:23;3.55;;;3.00;;
21814;SDS011;11069;48.988;8.450;2023-06-24T07:44:49;4.72;;;3.67;;
21814;SDS011;11069;48.988;8.450;2023-06-24T07:47:16;4.45;;;3.40;;
21814;SDS011;11069;48.988;8.450;2023-06-24T07:49:43;3.60;;;3.13;;
21814;SDS011;11069;48.988;8.450;2023-06-24T07:52:09;4.43;;;3.25;;
21814;SDS011;11069;48.988;8.450;2023-06-24T07:54:35;3.78;;;3.28;;
21814;SDS011;11069;48.988;8.450;2023-06-24T07:57:01;3.42;;;3.13;;
21814;SDS011;11069;48.988;8.450;2023-06-24T07:59:27;3.47;;;3.05;;
21814;SDS011;11069;48.988;8.450;2023-06-24T08:01:53;4.22;;;3.47;;
21814;SDS011;11069;48.988;8.450;2023-06-24T08:04:19;4.38;;;3.35;;
21814;SDS011;11069;48.988;8.450;2023-06-24T08:06:45;4.00;;;3.35;;
21814;SDS011;11069;48.988;8.450;2023-06-24T08:09:11;3.58;;;3.17;;
21814;SDS011;11069;48.988;8.450;2023-06-24T08:11:37;3.78;;;3.20;;
21814;SDS011;11069;48.988;8.450;2023-06-24T08:14:03;3.95;;;3.33;;
21814;SDS011;11069;48.988;8.450;2023-06-24T08:16:29;4.63;;;3.70;;
21814;SDS011;11069;48.988;8.450;2023-06-24T08:18:55;3.42;;;3.13;;
21814;SDS011;11069;48.988;8.450;2023-06-24T08:21:21;3.40;;;3.10;;
21814;SDS011;11069;48.988;8.450;2023-06-24T08:23:47;4.13;;;3.20;;
21814;SDS011;11069;48.988;8.450;2023-06-24T08:26:15;5.78;;;3.70;;
21814;SDS011;11069;48.988;8.450;2023-06-24T08:28:41;6.05;;;3.50;;
21814;SDS011;11069;48.988;8.450;2023-06-24T08:31:07;3.80;;;3.33;;
21814;SDS011;11069;48.988;8.450;2023-06-24T08:33:33;4.03;;;3.40;;
21814;SDS011;11069;48.988;8.450;2023-06-24T08:35:59;3.42;;;3.05;;
21814;SDS011;11069;48.988;8.450;2023-06-24T08:38:25;4.22;;;3.33;;
21814;SDS011;11069;48.988;8.450;2023-06-24T08:40:51;4.40;;;3.20;;
21814;SDS011;11069;48.988;8.450;2023-06-24T08:43:17;3.63;;;3.10;;
21814;SDS011;11069;48.988;8.450;2023-06-24T08:45:43;3.38;;;3.08;;
21814;SDS011;11069;48.988;8.450;2023-06-24T08:48:09;3.97;;;3.30;;
21814;SDS011;11069;48.988;8.450;2023-06-24T08:50:36;4.00;;;3.38;;
21814;SDS011;11069;48.988;8.450;2023-06-24T08:55:31;3.78;;;2.80;;
21814;SDS011;11069;48.988;8.450;2023-06-24T08:57:58;3.97;;;3.15;;
21814;SDS011;11069;48.988;8.450;2023-06-24T09:00:24;3.65;;;2.85;;
21814;SDS011;11069;48.988;8.450;2023-06-24T09:02:50;3.42;;;2.55;;
21814;SDS011;11069;48.988;8.450;2023-06-24T09:05:15;4.50;;;2.85;;
21814;SDS011;11069;48.988;8.450;2023-06-24T09:07:41;4.90;;;2.67;;
21814;SDS011;11069;48.988;8.450;2023-06-24T09:10:08;3.47;;;2.63;;
21814;SDS011;11069;48.988;8.450;2023-06-24T09:12:34;3.42;;;2.67;;
21814;SDS011;11069;48.988;8.450;2023-06-24T09:15:00;2.75;;;2.55;;
21814;SDS011;11069;48.988;8.450;2023-06-24T09:17:26;3.20;;;2.65;;
21814;SDS011;11069;48.988;8.450;2023-06-24T09:19:53;4.70;;;3.03;;
21814;SDS011;11069;48.988;8.450;2023-06-24T09:22:19;3.92;;;3.05;;
21814;SDS011;11069;48.988;8.450;2023-06-24T09:24:46;3.65;;;3.08;;
21814;SDS011;11069;48.988;8.450;2023-06-24T09:27:15;3.80;;;2.92;;
21814;SDS011;11069;48.988;8.450;2023-06-24T09:29:42;3.97;;;3.00;;
21814;SDS011;11069;48.988;8.450;2023-06-24T09:32:08;2.95;;;2.65;;
21814;SDS011;11069;48.988;8.450;2023-06-24T09:34:34;3.10;;;2.38;;
21814;SDS011;11069;48.988;8.450;2023-06-24T09:37:00;4.68;;;3.10;;
21814;SDS011;11069;48.988;8.450;2023-06-24T09:39:27;4.70;;;2.67;;
21814;SDS011;11069;48.988;8.450;2023-06-24T09:41:57;3.40;;;2.97;;
21814;SDS011;11069;48.988;8.450;2023-06-24T09:44:23;3.92;;;2.88;;
21814;SDS011;11069;48.988;8.450;2023-06-24T09:46:49;3.50;;;2.92;;
21814;SDS011;11069;48.988;8.450;2023-06-24T09:49:15;3.17;;;2.80;;
21814;SDS011;11069;48.988;8.450;2023-06-24T09:51:45;3.65;;;3.03;;
21814;SDS011;11069;48.988;8.450;2023-06-24T09:54:11;4.88;;;3.00;;
21814;SDS011;11069;48.988;8.450;2023-06-24T09:56:39;4.55;;;2.90;;
21814;SDS011;11069;48.988;8.450;2023-06-24T09:59:06;4.57;;;3.10;;
21814;SDS011;11069;48.988;8.450;2023-06-24T10:01:33;3.35;;;2.42;;
21814;SDS011;11069;48.988;8.450;2023-06-24T10:04:00;2.78;;;2.08;;
21814;SDS011;11069;48.988;8.450;2023-06-24T10:06:26;3.65;;;2.47;;
21814;SDS011;11069;48.988;8.450;2023-06-24T10:08:53;3.70;;;2.63;;
21814;SDS011;11069;48.988;8.450;2023-06-24T10:11:19;3.00;;;2.50;;
21814;SDS011;11069;48.988;8.450;2023-06-24T10:13:45;3.22;;;2.60;;
21814;SDS011;11069;48.988;8.450;2023-06-24T10:16:11;3.08;;;2.60;;
21814;SDS011;11069;48.988;8.450;2023-06-24T10:18:37;2.88;;;2.30;;
21814;SDS011;11069;48.988;8.450;2023-06-24T10:21:04;2.45;;;2.20;;
21814;SDS011;11069;48.988;8.450;2023-06-24T10:23:52;3.60;;;2.67;;
21814;SDS011;11069;48.988;8.450;2023-06-24T10:26:25;3.03;;;2.72;;
21814;SDS011;11069;48.988;8.450;2023-06-24T10:34:28;4.85;;;2.90;;
21814;SDS011;11069;48.988;8.450;2023-06-24T10:39:51;5.03;;;3.00;;
21814;SDS011;11069;48.988;8.450;2023-06-24T10:45:36;4.03;;;2.45;;
21814;SDS011;11069;48.988;8.450;2023-06-24T10:48:02;3.70;;;2.70;;
21814;SDS011;11069;48.988;8.450;2023-06-24T10:50:28;3.83;;;2.78;;
21814;SDS011;11069;48.988;8.450;2023-06-24T10:52:54;3.53;;;2.70;;
21814;SDS011;11069;48.988;8.450;2023-06-24T10:55:21;2.85;;;2.42;;
21814;SDS011;11069;48.988;8.450;2023-06-24T10:57:48;3.15;;;2.50;;
21814;SDS011;11069;48.988;8.450;2023-06-24T11:00:14;2.53;;;2.10;;
21814;SDS011;11069;48.988;8.450;2023-06-24T11:02:41;4.43;;;2.85;;
21814;SDS011;11069;48.988;8.450;2023-06-24T11:05:07;2.47;;;2.28;;
21814;SDS011;11069;48.988;8.450;2023-06-24T11:07:34;3.10;;;2.38;;
21814;SDS011;11069;48.988;8.450;2023-06-24T11:12:30;3.22;;;2.20;;
21814;SDS011;11069;48.988;8.450;2023-06-24T11:14:57;3.95;;;2.95;;
21814;SDS011;11069;48.988;8.450;2023-06-24T11:17:23;2.70;;;2.28;;
21814;SDS011;11069;48.988;8.450;2023-06-24T11:19:49;2.55;;;2.28;;
21814;SDS011;11069;48.988;8.450;2023-06-24T11:22:15;3.45;;;2.22;;
21814;SDS011;11069;48.988;8.450;2023-06-24T11:24:41;3.72;;;2.47;;
21814;SDS011;11069;48.988;8.450;2023-06-24T11:27:07;2.65;;;2.30;;
21814;SDS011;11069;48.988;8.450;2023-06-24T11:29:33;3.50;;;2.35;;
21814;SDS011;11069;48.988;8.450;2023-06-24T11:32:00;4.43;;;2.30;;
21814;SDS011;11069;48.988;8.450;2023-06-24T11:34:26;3.13;;;2.30;;
21814;SDS011;11069;48.988;8.450;2023-06-24T11:36:52;3.00;;;2.53;;
21814;SDS011;11069;48.988;8.450;2023-06-24T11:39:22;4.22;;;2.42;;
21814;SDS011;11069;48.988;8.450;2023-06-24T11:41:48;2.53;;;2.33;;
21814;SDS011;11069;48.988;8.450;2023-06-24T11:44:14;2.97;;;2.50;;
21814;SDS011;11069;48.988;8.450;2023-06-24T11:46:40;2.75;;;2.30;;
21814;SDS011;11069;48.988;8.450;2023-06-24T11:49:06;2.95;;;2.28;;
21814;SDS011;11069;48.988;8.450;2023-06-24T11:51:32;3.40;;;2.58;;
21814;SDS011;11069;48.988;8.450;2023-06-24T11:53:59;3.28;;;2.78;;
21814;SDS011;11069;48.988;8.450;2023-06-24T11:56:35;3.20;;;2.30;;
21814;SDS011;11069;48.988;8.450;2023-06-24T11:59:05;3.22;;;2.90;;
21814;SDS011;11069;48.988;8.450;2023-06-24T12:01:34;3.72;;;2.83;;
21814;SDS011;11069;48.988;8.450;2023-06-24T12:04:15;3.15;;;2.60;;
21814;SDS011;11069;48.988;8.450;2023-06-24T12:06:41;2.90;;;2.40;;
21814;SDS011;11069;48.988;8.450;2023-06-24T12:09:08;2.80;;;2.50;;
21814;SDS011;11069;48.988;8.450;2023-06-24T12:11:34;3.83;;;2.63;;
21814;SDS011;11069;48.988;8.450;2023-06-24T12:14:00;3.13;;;2.67;;
21814;SDS011;11069;48.988;8.450;2023-06-24T12:16:26;3.67;;;2.70;;
21814;SDS011;11069;48.988;8.450;2023-06-24T12:18:52;3.42;;;2.90;;
21814;SDS011;11069;48.988;8.450;2023-06-24T12:21:19;3.85;;;2.60;;
21814;SDS011;11069;48.988;8.450;2023-06-24T12:23:45;2.60;;;2.38;;
21814;SDS011;11069;48.988;8.450;2023-06-24T12:26:11;3.65;;;2.58;;
21814;SDS011;11069;48.988;8.450;2023-06-24T12:28:37;2.72;;;2.33;;
21814;SDS011;11069;48.988;8.450;2023-06-24T12:31:03;2.72;;;2.20;;
21814;SDS011;11069;48.988;8.450;2023-06-24T12:33:32;2.70;;;2.33;;
21814;SDS011;11069;48.988;8.450;2023-06-24T12:35:58;3.45;;;2.75;;
21814;SDS011;11069;48.988;8.450;2023-06-24T12:38:24;3.35;;;2.53;;
21814;SDS011;11069;48.988;8.450;2023-06-24T12:40:50;3.10;;;2.40;;
21814;SDS011;11069;48.988;8.450;2023-06-24T12:43:17;3.15;;;2.25;;
21814;SDS011;11069;48.988;8.450;2023-06-24T12:45:43;3.05;;;2.60;;
21814;SDS011;11069;48.988;8.450;2023-06-24T12:48:09;3.47;;;2.80;;
21814;SDS011;11069;48.988;8.450;2023-06-24T12:50:35;4.43;;;2.97;;
21814;SDS011;11069;48.988;8.450;2023-06-24T12:53:01;3.95;;;2.78;;
21814;SDS011;11069;48.988;8.450;2023-06-24T12:55:28;2.97;;;2.67;;
21814;SDS011;11069;48.988;8.450;2023-06-24T12:57:54;3.25;;;2.65;;
21814;SDS011;11069;48.988;8.450;2023-06-24T13:00:20;3.00;;;2.50;;
21814;SDS011;11069;48.988;8.450;2023-06-24T13:02:47;3.35;;;2.67;;
21814;SDS011;11069;48.988;8.450;2023-06-24T13:05:13;2.78;;;2.13;;
21814;SDS011;11069;48.988;8.450;2023-06-24T13:07:39;2.63;;;2.20;;
21814;SDS011;11069;48.988;8.450;2023-06-24T13:10:05;3.45;;;2.50;;
21814;SDS011;11069;48.988;8.450;2023-06-24T13:12:34;3.13;;;2.50;;
21814;SDS011;11069;48.988;8.450;2023-06-24T13:15:00;3.10;;;2.28;;
21814;SDS011;11069;48.988;8.450;2023-06-24T13:17:29;3.80;;;2.90;;
21814;SDS011;11069;48.988;8.450;2023-06-24T13:19:55;3.55;;;2.60;;
21814;SDS011;11069;48.988;8.450;2023-06-24T13:22:21;4.03;;;2.72;;
21814;SDS011;11069;48.988;8.450;2023-06-24T13:24:47;2.97;;;2.67;;
21814;SDS011;11069;48.988;8.450;2023-06-24T13:27:13;2.50;;;2.30;;
21814;SDS011;11069;48.988;8.450;2023-06-24T13:29:39;2.50;;;2.30;;
21814;SDS011;11069;48.988;8.450;2023-06-24T13:32:05;2.72;;;2.50;;
21814;SDS011;11069;48.988;8.450;2023-06-24T13:34:31;3.42;;;2.65;;
21814;SDS011;11069;48.988;8.450;2023-06-24T13:36:57;3.28;;;2.53;;
21814;SDS011;11069;48.988;8.450;2023-06-24T13:39:23;3.28;;;2.78;;
21814;SDS011;11069;48.988;8.450;2023-06-24T13:41:49;3.35;;;2.40;;
21814;SDS011;11069;48.988;8.450;2023-06-24T13:44:17;2.63;;;2.40;;
21814;SDS011;11069;48.988;8.450;2023-06-24T13:46:43;3.55;;;2.72;;
21814;SDS011;11069;48.988;8.450;2023-06-24T13:49:10;2.90;;;2.60;;
21814;SDS011;11069;48.988;8.450;2023-06-24T13:51:36;4.32;;;2.60;;
21814;SDS011;11069;48.988;8.450;2023-06-24T13:54:02;3.80;;;2.60;;
21814;SDS011;11069;48.988;8.450;2023-06-24T13:56:28;3.20;;;2.50;;
21814;SDS011;11069;48.988;8.450;2023-06-24T13:58:55;3.40;;;2.53;;
21814;SDS011;11069;48.988;8.450;2023-06-24T14:01:21;3.60;;;2.60;;
21814;SDS011;11069;48.988;8.450;2023-06-24T14:03:48;3.03;;;2.22;;
21814;SDS011;11069;48.988;8.450;2023-06-24T14:06:14;3.70;;;2.45;;
21814;SDS011;11069;48.988;8.450;2023-06-24T14:08:40;3.75;;;2.22;;
21814;SDS011;11069;48.988;8.450;2023-06-24T14:11:07;3.50;;;2.22;;
21814;SDS011;11069;48.988;8.450;2023-06-24T14:13:33;2.75;;;2.35;;
21814;SDS011;11069;48.988;8.450;2023-06-24T14:16:01;2.85;;;2.40;;
21814;SDS011;11069;48.988;8.450;2023-06-24T14:18:27;2.85;;;2.55;;
21814;SDS011;11069;48.988;8.450;2023-06-24T14:20:56;4.10;;;2.80;;
21814;SDS011;11069;48.988;8.450;2023-06-24T14:23:22;3.55;;;2.28;;
21814;SDS011;11069;48.988;8.450;2023-06-24T14:25:50;2.55;;;2.08;;
21814;SDS011;11069;48.988;8.450;2023-06-24T14:28:16;3.38;;;2.30;;
21814;SDS011;11069;48.988;8.450;2023-06-24T14:30:42;4.03;;;2.92;;
21814;SDS011;11069;48.988;8.450;2023-06-24T14:33:10;3.05;;;2.50;;
21814;SDS011;11069;48.988;8.450;2023-06-24T14:35:36;3.45;;;2.30;;
21814;SDS011;11069;48.988;8.450;2023-06-24T14:38:02;3.05;;;2.20;;
21814;SDS011;11069;48.988;8.450;2023-06-24T14:40:28;2.78;;;2.10;;
21814;SDS011;11069;48.988;8.450;2023-06-24T14:42:54;3.38;;;2.33;;
21814;SDS011;11069;48.988;8.450;2023-06-24T14:45:20;3.08;;;2.38;;
21814;SDS011;11069;48.988;8.450;2023-06-24T14:47:46;2.78;;;2.40;;
21814;SDS011;11069;48.988;8.450;2023-06-24T14:50:13;3.13;;;2.70;;
21814;SDS011;11069;48.988;8.450;2023-06-24T14:52:39;2.88;;;2.20;;
21814;SDS011;11069;48.988;8.450;2023-06-24T14:55:05;3.22;;;2.38;;
21814;SDS011;11069;48.988;8.450;2023-06-24T14:57:31;3.20;;;2.40;;
21814;SDS011;11069;48.988;8.450;2023-06-24T14:59:57;3.28;;;2.38;;
21814;SDS011;11069;48.988;8.450;2023-06-24T15:02:23;2.92;;;2.08;;
21814;SDS011;11069;48.988;8.450;2023-06-24T15:04:51;4.35;;;2.60;;
21814;SDS011;11069;48.988;8.450;2023-06-24T15:07:16;2.53;;;2.30;;
21814;SDS011;11069;48.988;8.450;2023-06-24T15:09:42;2.92;;;2.10;;
21814;SDS011;11069;48.988;8.450;2023-06-24T15:12:09;3.30;;;2.10;;
21814;SDS011;11069;48.988;8.450;2023-06-24T15:14:35;4.00;;;2.70;;